Data for 12/19/2007

Time Sea-Level Adjusted Pressure Absolute Pressure Temperature Relative Humidity Dew Point   
(mb) (inHg) (mb) (inHg) (C) (F) (%) (C) (F)
00:05 1009 29.8 838 24.75 3.3 38 50 -6 21.1
00:10 1009 29.8 838 24.75 3.4 38.1 52 -5.6 21.8
00:15 1009 29.8 838 24.75 3.3 38 51 -5.8 21.5
00:20 1009 29.8 838 24.75 3.5 38.3 49 -6.2 20.9
00:25 1009 29.8 838 24.75 3.6 38.5 48 -6.4 20.5
00:30 1009 29.8 838 24.75 3.8 38.9 49 -5.9 21.3
00:35 1009 29.8 838 24.75 3.7 38.7 48 -6.2 20.8
00:40 1009 29.8 838 24.75 3.7 38.7 49 -5.9 21.3
00:45 1009 29.8 838 24.75 3.6 38.4 50 -5.8 21.6
00:50 1009 29.8 838 24.75 3.3 38 51 -5.8 21.5
00:55 1009 29.8 838 24.75 3.2 37.8 52 -5.6 21.9
01:00 1009 29.8 838 24.75 3.2 37.8 51 -5.9 21.4
01:05 1009 29.8 838 24.75 3.3 38 50 -6.2 20.8
01:10 1009 29.8 838 24.75 3.4 38 50 -6 21.2
01:15 1009 29.8 838 24.75 3.2 37.7 53 -5.6 21.9
01:20 1009 29.8 838 24.75 2.7 36.8 55 -5.5 22
01:25 1009 29.8 838 24.75 2.5 36.6 54 -5.8 21.5
01:30 1009 29.8 838 24.75 2.6 36.6 54 -5.7 21.7
01:35 1009 29.8 838 24.75 2.6 36.6 53 -6 21.3
01:40 1009 29.8 838 24.75 2.7 36.8 53 -5.9 21.4
01:45 1009 29.8 838 24.75 2.7 36.8 54 -5.7 21.7
01:50 1009 29.8 838 24.75 2.4 36.4 57 -5.2 22.7
01:55 1009 29.8 838 24.75 2 35.7 58 -5.4 22.3
02:00 1009 29.8 838 24.75 1.9 35.4 57 -5.7 21.7
02:05 1009 29.8 838 24.75 2.4 36.3 52 -6.4 20.4
02:10 1009 29.8 838 24.75 2.8 37.1 52 -6.1 21
02:15 1009 29.8 838 24.75 2.9 37.2 52 -6.1 21
02:20 1009 29.8 838 24.75 2.8 37.1 53 -5.8 21.5
02:25 1009 29.8 838 24.75 2.5 36.5 55 -5.8 21.6
02:30 1009 29.8 838 24.75 2.1 35.9 55 -6 21.3
02:35 1009 29.8 838 24.75 2.1 35.7 55 -6 21.2
02:40 1009 29.8 838 24.75 1.9 35.5 56 -5.9 21.4
02:45 1009 29.8 838 24.75 1.9 35.4 56 -6 21.1
02:50 1009 29.8 838 24.75 1.9 35.5 55 -6.1 21
02:55 1009 29.8 838 24.75 2.1 35.9 53 -6.5 20.3
03:00 1009 29.8 838 24.75 2.5 36.5 50 -6.9 19.6
03:05 1009 29.8 838 24.75 2.6 36.8 50 -6.8 19.8
03:10 1009 29.8 838 24.75 2.5 36.5 50 -7 19.4
03:15 1009 29.8 838 24.75 2.5 36.5 51 -6.7 19.9
03:20 1009 29.8 838 24.75 2.4 36.3 50 -7 19.4
03:25 1009 29.8 838 24.75 2.2 35.9 53 -6.5 20.2
03:30 1009 29.8 838 24.75 1.8 35.2 56 -6.2 20.8
03:35 1009 29.8 838 24.75 1.3 34.3 57 -6.4 20.6
03:40 1009 29.8 838 24.75 0.9 33.6 58 -6.5 20.4
03:45 1009 29.8 838 24.75 0.6 33.2 59 -6.6 20.2
03:50 1009 29.8 838 24.75 0.7 33.3 59 -6.5 20.3
03:55 1009 29.8 838 24.75 0.6 33 59 -6.6 20.1
04:00 1009 29.8 838 24.75 1.2 34.1 55 -7 19.5
04:05 1009 29.8 838 24.75 1.5 34.8 55 -6.6 20.1
04:10 1009 29.8 838 24.75 1.5 34.6 52 -7.3 18.9
04:15 1009 29.8 838 24.75 2.3 36.1 48 -7.6 18.4
04:20 1009 29.8 838 24.75 2.3 36.1 52 -6.5 20.3
04:25 1009 29.8 838 24.75 2.3 36.1 46 -8.3 17.1
04:30 1009 29.8 838 24.75 2.7 36.9 47 -7.5 18.4
04:35 1009 29.8 838 24.75 2.5 36.5 47 -7.7 18.2
04:40 1009 29.8 838 24.75 2.6 36.7 45 -8.1 17.4
04:45 1009 29.8 838 24.75 2.8 37.1 46 -7.8 18
04:50 1009 29.8 838 24.75 2.6 36.7 47 -7.7 18.2
04:55 1009 29.8 838 24.75 2.4 36.3 48 -7.4 18.7
05:00 1009 29.8 838 24.75 2.1 35.7 48 -7.9 17.8
05:05 1009 29.8 838 24.75 2.3 36.1 47 -7.9 17.7
05:10 1009 29.8 838 24.75 2.2 36 48 -7.8 18
05:15 1009 29.8 838 24.75 2.5 36.4 46 -8.1 17.4
05:20 1009 29.8 838 24.75 2.7 36.8 44 -8.4 16.8
05:25 1009 29.8 838 24.75 2.8 37.1 44 -8.4 17
05:30 1009 29.8 838 24.75 2.8 37 45 -8.1 17.4
05:35 1009 29.8 838 24.75 2.7 36.8 45 -8.1 17.4
05:40 1009 29.8 838 24.75 2.5 36.5 46 -8 17.6
05:45 1009 29.8 838 24.75 2.4 36.2 46 -8.1 17.4
05:50 1009 29.8 838 24.75 2.1 35.8 48 -7.9 17.8
05:55 1009 29.8 838 24.75 1.9 35.5 48 -8 17.5
06:00 1009 29.8 838 24.75 1.9 35.3 48 -8 17.7
06:05 1009 29.8 838 24.75 1.9 35.4 46 -8.5 16.7
06:10 1009 29.8 838 24.75 2.1 35.8 44 -8.8 16.2
06:15 1009 29.8 838 24.75 2.3 36.2 45 -8.4 16.9
06:20 1009 29.8 838 24.75 2.4 36.3 45 -8.4 16.9
06:25 1009 29.8 838 24.75 2.6 36.6 44 -8.4 16.8
06:30 1009 29.8 838 24.75 2.7 36.8 44 -8.3 17
06:35 1009 29.8 838 24.75 2.9 37.2 44 -8.3 17.1
06:40 1009 29.8 838 24.75 3.2 37.7 43 -8.2 17.2
06:45 1009 29.8 838 24.75 3.2 37.8 44 -8 17.6
06:50 1009 29.8 838 24.75 2.6 36.6 50 -6.9 19.6
06:55 1009 29.8 838 24.75 1.9 35.3 49 -7.7 18.2
07:00 1009 29.8 839 24.78 1.7 35.1 50 -7.6 18.3
07:05 1009 29.8 839 24.78 1.2 34.2 49 -8.2 17.2
07:10 1009 29.8 838 24.75 1.8 35.2 45 -9 15.7
07:15 1009 29.8 838 24.75 2.1 35.7 46 -8.3 17
07:20 1009 29.8 838 24.75 2.2 35.9 44 -8.9 16
07:25 1009 29.8 838 24.75 2.3 36.2 45 -8.4 16.9
07:30 1009 29.8 838 24.75 1.9 35.4 46 -8.4 16.8
07:35 1009 29.8 838 24.75 2 35.7 44 -9 15.7
07:40 1009 29.8 838 24.75 2.4 36.3 44 -8.7 16.3
07:45 1009 29.8 838 24.75 2.4 36.3 44 -8.5 16.7
07:50 1009 29.8 838 24.75 2.2 36 45 -8.5 16.7
07:55 1009 29.8 838 24.75 2.2 36 45 -8.4 16.8
08:00 1009 29.8 838 24.75 2.2 36 44 -8.7 16.3
08:05 1009 29.8 838 24.75 2.4 36.3 45 -8.4 16.8
08:10 1009 29.8 838 24.75 2.4 36.4 45 -8.3 17
08:15 1009 29.8 838 24.75 2.2 36 46 -8.2 17.3
08:20 1009 29.8 838 24.75 2.2 36 47 -8 17.7
08:25 1009 29.8 838 24.75 2 35.5 50 -7.5 18.5
08:30 1009 29.8 838 24.75 1.8 35.2 49 -7.9 17.8
08:35 1009 29.8 838 24.75 1.8 35.2 49 -7.8 18
08:40 1009 29.8 838 24.75 1.6 34.9 50 -7.8 18
08:45 1009 29.8 838 24.75 1.8 35.3 46 -8.7 16.4
08:50 1009 29.8 838 24.75 2.5 36.6 45 -8.3 17.1
08:55 1009 29.8 838 24.75 2.6 36.7 46 -8 17.6
09:00 1009 29.8 839 24.78 2.5 36.5 46 -8 17.6
09:05 1009 29.8 839 24.78 2.6 36.7 47 -7.5 18.5
09:10 1009 29.8 839 24.78 2.7 36.9 46 -7.8 18
09:15 1009 29.8 839 24.78 3 37.5 45 -7.7 18.1
09:20 1009 29.8 839 24.78 3.2 37.8 44 -8 17.7
09:25 1010 29.83 839 24.78 3.4 38.1 43 -8.1 17.5
09:30 1010 29.83 839 24.78 3.5 38.2 43 -7.8 17.9
09:35 1010 29.83 839 24.78 3.5 38.2 44 -7.8 18
09:40 1010 29.83 839 24.78 3.5 38.2 43 -8.1 17.5
09:45 1010 29.83 839 24.78 3.5 38.3 44 -7.8 18
09:50 1010 29.83 839 24.78 3.7 38.6 43 -7.8 18
09:55 1010 29.83 839 24.78 3.6 38.4 45 -7.2 19
10:00 1010 29.83 839 24.78 3.4 38.1 45 -7.6 18.4
10:05 1010 29.83 839 24.78 3.5 38.3 44 -7.5 18.5
10:10 1010 29.83 839 24.78 3.6 38.5 45 -7.3 18.8
10:15 1010 29.83 839 24.78 3.5 38.2 45 -7.4 18.7
10:20 1010 29.83 839 24.78 3.7 38.6 42 -8.2 17.2
10:25 1010 29.83 839 24.78 3.9 39 42 -7.9 17.8
10:30 1010 29.83 839 24.78 3.9 39.1 44 -7.3 18.8
10:35 1010 29.83 839 24.78 3.8 38.9 43 -7.6 18.3
10:40 1010 29.83 839 24.78 3.9 39 43 -7.6 18.3
10:45 1010 29.83 839 24.78 4.1 39.3 42 -7.6 18.3
10:50 1010 29.83 839 24.78 4 39.1 43 -7.6 18.3
10:55 1010 29.83 839 24.78 4.2 39.5 40 -8.4 16.9
11:00 1010 29.83 839 24.78 4.4 39.9 39 -8.4 16.8
11:05 1009 29.8 839 24.78 4.5 40.1 40 -8.1 17.4
11:10 1009 29.8 839 24.78 4.5 40.1 39 -8.4 16.8
11:15 1009 29.8 839 24.78 4.4 39.9 38 -8.8 16.2
11:20 1009 29.8 839 24.78 4.4 39.9 39 -8.3 17.1
11:25 1009 29.8 839 24.78 4.3 39.8 40 -7.9 17.7
11:30 1009 29.8 838 24.75 4.4 40 41 -7.7 18.1
11:35 1009 29.8 838 24.75 4.5 40.1 41 -7.8 18
11:40 1009 29.8 838 24.75 4.6 40.3 40 -7.8 18
11:45 1009 29.8 838 24.75 4.6 40.3 40 -7.9 17.9
11:50 1009 29.8 838 24.75 4.8 40.6 39 -8.2 17.3
11:55 1009 29.8 838 24.75 5.1 41.2 39 -7.6 18.3
12:00 1009 29.8 838 24.75 4.9 40.9 40 -7.6 18.3
12:05 1009 29.8 838 24.75 4.9 40.8 39 -7.8 17.9
12:10 1009 29.8 838 24.75 4.9 40.9 39 -7.8 18
12:15 1009 29.8 838 24.75 5.1 41.2 39 -7.7 18.1
12:20 1009 29.8 838 24.75 5.5 42 39 -7.3 18.9
12:25 1009 29.8 838 24.75 5.7 42.2 38 -7.6 18.4
12:30 1009 29.8 838 24.75 5.4 41.8 39 -7.4 18.8
12:35 1009 29.8 838 24.75 5.3 41.6 39 -7.6 18.3
12:40 1009 29.8 838 24.75 5.2 41.4 35 -8.9 16
12:45 1009 29.8 838 24.75 5.3 41.5 34 -9.2 15.5
12:50 1009 29.8 838 24.75 5.5 41.8 35 -8.8 16.2
12:55 1009 29.8 838 24.75 5.6 42.1 34 -9.2 15.5
13:00 1009 29.8 838 24.75 5.7 42.2 34 -9.1 15.6
13:05 1009 29.8 838 24.75 5.5 42 34 -9.1 15.6
13:10 1009 29.8 838 24.75 5.5 41.8 33 -9.7 14.5
13:15 1009 29.8 838 24.75 5.6 42.1 32 -9.8 14.3
13:20 1009 29.8 838 24.75 5.6 42.1 33 -9.6 14.8
13:25 1009 29.8 838 24.75 5.7 42.2 34 -8.9 15.9
13:30 1009 29.8 838 24.75 5.6 42.1 33 -9.3 15.2
13:35 1009 29.8 838 24.75 5.6 42 34 -9.2 15.5
13:40 1009 29.8 838 24.75 5.5 41.9 33 -9.7 14.6
13:45 1008 29.77 838 24.75 5.5 41.9 33 -9.5 14.8
13:50 1009 29.8 838 24.75 5.6 42 34 -9 15.7
13:55 1009 29.8 838 24.75 5.3 41.6 36 -8.7 16.4
14:00 1008 29.77 838 24.75 5.3 41.5 33 -9.6 14.8
14:05 1008 29.77 838 24.75 5.4 41.8 35 -8.8 16.2
14:10 1009 29.8 838 24.75 5.2 41.4 35 -8.8 16.1
14:15 1009 29.8 838 24.75 5.3 41.5 34 -9.4 15.1
14:20 1009 29.8 838 24.75 5.4 41.7 34 -9.4 15.1
14:25 1009 29.8 838 24.75 5.4 41.8 33 -9.6 14.7
14:30 1009 29.8 838 24.75 5.5 41.8 33 -9.5 14.9
14:35 1009 29.8 838 24.75 5.4 41.8 35 -8.9 16
14:40 1009 29.8 838 24.75 5.3 41.5 36 -8.7 16.3
14:45 1009 29.8 838 24.75 5.2 41.3 36 -8.9 16
14:50 1009 29.8 838 24.75 5.2 41.3 37 -8.5 16.7
14:55 1009 29.8 838 24.75 5 41 36 -8.8 16.1
15:00 1009 29.8 838 24.75 5.1 41.1 38 -8.3 17.1
15:05 1009 29.8 838 24.75 5.1 41.2 38 -8.1 17.4
15:10 1009 29.8 838 24.75 4.9 40.8 38 -8.2 17.2
15:15 1009 29.8 838 24.75 4.9 40.8 39 -8.1 17.5
15:20 1009 29.8 838 24.75 5 41 37 -8.7 16.4
15:25 1009 29.8 838 24.75 5 41 37 -8.4 17
15:30 1009 29.8 838 24.75 5.1 41.2 40 -7.5 18.6
15:35 1009 29.8 838 24.75 4.7 40.5 43 -6.7 19.9
15:40 1009 29.8 838 24.75 4.6 40.2 41 -7.4 18.6
15:45 1009 29.8 838 24.75 4.4 39.9 45 -6.5 20.4
15:50 1009 29.8 838 24.75 4.3 39.7 43 -7.4 18.7
15:55 1009 29.8 838 24.75 4.5 40 41 -7.6 18.4
16:00 1009 29.8 838 24.75 4.5 40.2 42 -7.4 18.8
16:05 1009 29.8 838 24.75 4.6 40.3 41 -7.6 18.3
16:10 1009 29.8 838 24.75 4.5 40.1 42 -7.2 19
16:15 1009 29.8 838 24.75 4.4 39.8 42 -7.4 18.7
16:20 1009 29.8 838 24.75 4.5 40.1 41 -7.5 18.5
16:25 1009 29.8 838 24.75 4.3 39.7 45 -6.7 19.9
16:30 1009 29.8 838 24.75 4.4 39.9 39 -8.3 17.1
16:35 1009 29.8 838 24.75 4.7 40.5 41 -7.6 18.3
16:40 1009 29.8 838 24.75 4.8 40.6 40 -7.8 18
16:45 1009 29.8 838 24.75 4.7 40.4 41 -7.4 18.6
16:50 1009 29.8 838 24.75 4.4 40 42 -7.4 18.7
16:55 1009 29.8 838 24.75 4.3 39.7 45 -6.7 20
17:00 1009 29.8 838 24.75 4 39.2 47 -6.4 20.5
17:05 1009 29.8 838 24.75 4 39.2 45 -6.9 19.6
17:10 1009 29.8 838 24.75 4.3 39.7 44 -6.8 19.7
17:15 1009 29.8 838 24.75 4.1 39.3 45 -6.7 20
17:20 1009 29.8 838 24.75 4 39.2 47 -6.4 20.5
17:25 1009 29.8 838 24.75 4.3 39.8 43 -7.1 19.1
17:30 1009 29.8 838 24.75 4.3 39.8 45 -6.6 20.2
17:35 1009 29.8 838 24.75 4.1 39.4 44 -7 19.4
17:40 1009 29.8 838 24.75 4.3 39.7 44 -7 19.3
17:45 1009 29.8 838 24.75 4.3 39.8 44 -7 19.4
17:50 1009 29.8 838 24.75 4.3 39.7 45 -6.8 19.8
17:55 1009 29.8 838 24.75 4.5 40.2 44 -6.5 20.2
18:00 1009 29.8 838 24.75 4.1 39.4 47 -6.1 21.1
18:05 1009 29.8 838 24.75 4 39.1 45 -7 19.5
18:10 1009 29.8 838 24.75 4.4 40 43 -7.1 19.3
18:15 1009 29.8 838 24.75 4.3 39.8 45 -6.5 20.4
18:20 1009 29.8 838 24.75 4 39.3 49 -5.9 21.5
18:25 1009 29.8 838 24.75 4 39.1 47 -6.5 20.4
18:30 1009 29.8 838 24.75 4.3 39.8 45 -6.6 20.1
18:35 1009 29.8 838 24.75 4.9 40.7 41 -7.5 18.6
18:40 1009 29.8 838 24.75 5.1 41.2 42 -6.9 19.6
18:45 1009 29.8 838 24.75 4.7 40.5 43 -6.8 19.8
18:50 1009 29.8 838 24.75 4.6 40.2 45 -6.3 20.7
18:55 1009 29.8 838 24.75 4.4 39.9 44 -7 19.5
19:00 1009 29.8 838 24.75 4.4 40 44 -6.9 19.6
19:05 1009 29.8 838 24.75 4.4 39.9 44 -7 19.5
19:10 1009 29.8 838 24.75 4.5 40.2 43 -6.9 19.6
19:15 1009 29.8 838 24.75 4.6 40.2 43 -6.8 19.7
19:20 1009 29.8 838 24.75 4.4 39.9 44 -6.8 19.7
19:25 1009 29.8 838 24.75 4.3 39.7 44 -6.8 19.7
19:30 1009 29.8 838 24.75 4.1 39.4 45 -6.7 19.9
19:35 1009 29.8 838 24.75 4.3 39.8 44 -7 19.4
19:40 1009 29.8 838 24.75 4.3 39.7 46 -6.5 20.3
19:45 1009 29.8 838 24.75 3.8 38.9 46 -6.8 19.8
19:50 1009 29.8 838 24.75 4 39.2 46 -6.6 20.1
19:55 1009 29.8 838 24.75 4 39.3 46 -6.5 20.3
20:00 1009 29.8 838 24.75 4 39.1 46 -6.5 20.2
20:05 1009 29.8 838 24.75 3.8 38.9 47 -6.5 20.4
20:10 1009 29.8 838 24.75 3.8 38.9 46 -6.7 19.9
20:15 1009 29.8 838 24.75 4 39.2 46 -6.6 20.1
20:20 1009 29.8 838 24.75 4.1 39.4 45 -6.8 19.8
20:25 1009 29.8 838 24.75 4 39.3 46 -6.6 20.2
20:30 1009 29.8 838 24.75 3.9 39 46 -6.5 20.2
20:35 1009 29.8 838 24.75 3.9 39 47 -6.5 20.3
20:40 1009 29.8 838 24.75 3.9 39 48 -6.2 20.8
20:45 1009 29.8 838 24.75 3.9 39.1 47 -6.4 20.4
20:50 1009 29.8 838 24.75 4 39.1 48 -6.1 21.1
20:55 1009 29.8 838 24.75 3.8 38.9 48 -6.2 20.8
21:00 1009 29.8 838 24.75 3.6 38.5 50 -5.9 21.4
21:05 1009 29.8 838 24.75 3.4 38.2 52 -5.6 22
21:10 1009 29.8 838 24.75 3.3 37.9 50 -6.2 20.9
21:15 1009 29.8 838 24.75 3.3 38 53 -5.5 22.2
21:20 1009 29.8 838 24.75 2.9 37.2 54 -5.5 22.1
21:25 1009 29.8 838 24.75 2.7 36.9 54 -5.6 21.9
21:30 1009 29.8 838 24.75 2.8 37 55 -5.4 22.2
21:35 1008 29.77 838 24.75 2.7 36.9 53 -5.9 21.4
21:40 1009 29.8 838 24.75 3 37.4 51 -6.1 21.1
21:45 1008 29.77 838 24.75 3.2 37.8 52 -5.8 21.5
21:50 1008 29.77 838 24.75 3.2 37.8 50 -6.2 20.9
21:55 1008 29.77 838 24.75 3.5 38.3 49 -6.3 20.7
22:00 1008 29.77 838 24.75 3.7 38.7 49 -6.1 21
22:05 1008 29.77 838 24.75 3.9 38.9 48 -6.1 21
22:10 1008 29.77 838 24.75 3.9 39.1 49 -6 21.3
22:15 1008 29.77 838 24.75 3.9 39 51 -5.4 22.2
22:20 1008 29.77 837 24.72 3.6 38.5 52 -5.3 22.5
22:25 1008 29.77 837 24.72 3.5 38.3 52 -5.3 22.4
22:30 1008 29.77 837 24.72 3.5 38.4 52 -5.4 22.3
22:35 1008 29.77 837 24.72 3.6 38.5 52 -5.4 22.3
22:40 1008 29.77 837 24.72 3.5 38.3 53 -5.2 22.7
22:45 1008 29.77 837 24.72 3.4 38.2 53 -5.3 22.4
22:50 1008 29.77 837 24.72 3.3 38 54 -5 23
22:55 1008 29.77 837 24.72 3.2 37.8 54 -5.3 22.4
23:00 1008 29.77 837 24.72 3.3 37.9 54 -5.1 22.9
23:05 1008 29.77 837 24.72 3.4 38.1 53 -5.2 22.7
23:10 1008 29.77 837 24.72 3.5 38.2 52 -5.6 21.9
23:15 1008 29.77 837 24.72 3.5 38.4 52 -5.3 22.5
23:20 1008 29.77 837 24.72 3.5 38.2 53 -5.2 22.7
23:25 1008 29.77 837 24.72 3.3 37.9 55 -5 23.1
23:30 1008 29.77 837 24.72 3.2 37.7 55 -5.1 22.9
23:35 1008 29.77 837 24.72 3.1 37.6 55 -4.9 23.1
23:40 1008 29.77 837 24.72 2.9 37.3 55 -5.1 22.8
23:45 1008 29.77 837 24.72 2.9 37.3 55 -5.2 22.6
23:50 1008 29.77 837 24.72 2.9 37.3 54 -5.5 22.1
23:55 1008 29.77 837 24.72 3 37.5 52 -6 21.3
24:00 1007 29.74 837 24.72 3.3 37.9 52 -5.7 21.7